Time;durP1;ratioP1;P1;durP2;ratioP2;P2;SDS_P1;SDS_P2;PMS_P1;PMS_P2;Temp;Humidity;BMP_temperature;BMP_pressure;BME280_temperature;BME280_humidity;BME280_pressure;Samples;Min_cycle;Max_cycle;Signal;HPM_P1;HPM_P2
2021/03/01 00:00:37;;;;;;;42.00;29.90;;;3.30;99.90;;;;;;5045261;28;20467;-71
2021/03/01 00:03:04;;;;;;;46.87;29.40;;;3.30;99.90;;;;;;5042987;28;20456;-72
2021/03/01 00:05:30;;;;;;;40.70;29.63;;;3.30;99.90;;;;;;5043088;28;20460;-71
2021/03/01 00:07:57;;;;;;;43.13;30.63;;;3.40;99.90;;;;;;5046880;28;20467;-73
2021/03/01 00:10:24;;;;;;;54.23;32.00;;;3.40;99.90;;;;;;5045293;28;20561;-72
2021/03/01 00:12:51;;;;;;;48.30;31.20;;;3.50;99.90;;;;;;5041845;28;20627;-71
2021/03/01 00:15:20;;;;;;;47.27;30.37;;;3.40;99.90;;;;;;5049693;28;20574;-71
2021/03/01 00:17:47;;;;;;;41.03;30.33;;;3.40;99.90;;;;;;5047892;28;20519;-72
2021/03/01 00:20:15;;;;;;;43.40;30.50;;;3.40;99.90;;;;;;5043427;28;20557;-72
2021/03/01 00:22:42;;;;;;;49.13;31.97;;;3.40;99.90;;;;;;5045471;28;20517;-71
2021/03/01 00:25:10;;;;;;;44.60;30.47;;;3.40;99.90;;;;;;5039627;28;20468;-74
2021/03/01 00:27:36;;;;;;;50.00;32.90;;;3.50;99.90;;;;;;5042985;28;20831;-73
2021/03/01 00:30:06;;;;;;;40.83;31.23;;;3.50;99.90;;;;;;5038034;28;20462;-72
2021/03/01 00:32:32;;;;;;;48.37;31.00;;;3.50;99.90;;;;;;5040917;28;21303;-73
2021/03/01 00:34:58;;;;;;;48.63;33.37;;;3.50;99.90;;;;;;5042955;28;20494;-73
2021/03/01 00:37:26;;;;;;;46.57;32.57;;;3.50;99.90;;;;;;5041238;28;20467;-73
2021/03/01 00:39:52;;;;;;;50.63;31.17;;;3.60;99.90;;;;;;5038034;28;20449;-71
2021/03/01 00:42:19;;;;;;;44.77;29.83;;;3.60;99.90;;;;;;5044172;28;20463;-74
2021/03/01 00:44:45;;;;;;;42.60;31.07;;;3.50;99.90;;;;;;5044637;28;20489;-74
2021/03/01 00:47:13;;;;;;;54.97;32.77;;;3.50;99.90;;;;;;5044893;28;20460;-72
2021/03/01 00:49:39;;;;;;;49.87;32.83;;;3.50;99.90;;;;;;5038157;28;20472;-72
2021/03/01 00:52:05;;;;;;;43.33;32.57;;;3.50;99.90;;;;;;5042383;28;20487;-73
2021/03/01 00:54:32;;;;;;;50.13;31.80;;;3.50;99.90;;;;;;5038203;28;20459;-73
2021/03/01 00:56:58;;;;;;;52.10;31.57;;;3.50;99.90;;;;;;5047116;28;20533;-72
2021/03/01 00:59:26;;;;;;;45.90;33.43;;;3.40;99.90;;;;;;5046108;28;20475;-73
2021/03/01 01:01:52;;;;;;;49.00;33.37;;;3.40;99.90;;;;;;5043533;28;20882;-73
2021/03/01 01:04:20;;;;;;;46.30;33.77;;;3.40;99.90;;;;;;5036788;28;20467;-72
2021/03/01 01:06:47;;;;;;;49.93;32.43;;;3.40;99.90;;;;;;5042144;28;20479;-72
2021/03/01 01:09:13;;;;;;;46.27;34.23;;;3.30;99.90;;;;;;5041495;28;20485;-73
2021/03/01 01:11:40;;;;;;;49.90;34.87;;;3.30;99.90;;;;;;5040834;28;20467;-73
2021/03/01 01:14:07;;;;;;;57.13;36.23;;;3.40;99.90;;;;;;5039373;28;20891;-73
2021/03/01 01:16:33;;;;;;;52.73;35.70;;;3.30;99.90;;;;;;5046500;28;20637;-71
2021/03/01 01:19:00;;;;;;;56.90;34.63;;;3.30;99.90;;;;;;5039223;28;20474;-72
2021/03/01 01:21:27;;;;;;;49.13;35.43;;;3.20;99.90;;;;;;5035184;28;20558;-73
2021/03/01 01:23:53;;;;;;;50.43;36.57;;;3.20;99.90;;;;;;5042687;28;20971;-73
2021/03/01 01:26:20;;;;;;;50.63;34.60;;;3.30;99.90;;;;;;5040947;28;20523;-72
2021/03/01 01:28:46;;;;;;;54.17;36.90;;;3.20;99.90;;;;;;5040157;28;20464;-74
2021/03/01 01:31:13;;;;;;;54.03;37.83;;;3.20;99.90;;;;;;5041965;28;20467;-74
2021/03/01 01:33:39;;;;;;;47.67;34.33;;;3.20;99.90;;;;;;5035940;28;20500;-75
2021/03/01 01:36:06;;;;;;;61.60;36.57;;;3.20;99.90;;;;;;5044064;28;20488;-72
2021/03/01 01:38:33;;;;;;;60.97;35.97;;;3.10;99.90;;;;;;5041021;28;20459;-74
2021/03/01 01:41:00;;;;;;;55.83;36.23;;;3.00;99.90;;;;;;5037161;28;20847;-75
2021/03/01 01:43:26;;;;;;;49.43;36.07;;;3.00;99.90;;;;;;5041529;28;20470;-73
2021/03/01 01:45:52;;;;;;;63.90;36.60;;;2.90;99.90;;;;;;5039770;28;20460;-71
2021/03/01 01:48:18;;;;;;;60.80;37.73;;;2.90;99.90;;;;;;5041022;28;20466;-73
2021/03/01 01:50:45;;;;;;;66.93;38.83;;;2.90;99.90;;;;;;5039269;28;20470;-71
2021/03/01 01:53:12;;;;;;;53.03;36.87;;;2.90;99.90;;;;;;5037519;28;20946;-73
2021/03/01 01:55:40;;;;;;;57.93;38.20;;;2.80;99.90;;;;;;5038607;28;20491;-75
2021/03/01 01:58:06;;;;;;;60.20;37.80;;;2.80;99.90;;;;;;5038268;28;20664;-74
2021/03/01 02:00:44;;;;;;;56.00;38.23;;;2.90;99.90;;;;;;5037932;28;20467;-73
2021/03/01 02:03:26;;;;;;;67.13;37.37;;;2.80;99.90;;;;;;5041481;28;21007;-75
2021/03/01 02:05:56;;;;;;;54.33;34.10;;;2.80;99.90;;;;;;5031015;28;20471;-74
2021/03/01 02:08:28;;;;;;;50.17;34.60;;;2.80;99.90;;;;;;5045838;28;20463;-77
2021/03/01 02:11:07;;;;;;;57.80;38.50;;;2.80;99.90;;;;;;5042364;28;20463;-75
2021/03/01 02:13:38;;;;;;;62.13;38.37;;;2.70;99.90;;;;;;5040169;28;20467;-75
2021/03/01 02:16:09;;;;;;;59.83;37.37;;;2.80;99.90;;;;;;5039345;28;20836;-75
2021/03/01 02:18:35;;;;;;;53.80;36.50;;;2.80;99.90;;;;;;5042068;28;20465;-76
2021/03/01 02:21:09;;;;;;;55.43;37.67;;;2.70;99.90;;;;;;5040333;28;20469;-73
2021/03/01 02:23:37;;;;;;;61.03;37.10;;;2.70;99.90;;;;;;5040710;28;20769;-72
2021/03/01 02:26:08;;;;;;;52.53;34.53;;;2.70;99.90;;;;;;5037390;28;20467;-74
2021/03/01 02:28:40;;;;;;;67.37;36.33;;;2.60;99.90;;;;;;5041400;28;20468;-76
2021/03/01 02:31:07;;;;;;;64.53;38.70;;;2.60;99.90;;;;;;5041404;28;20458;-76
2021/03/01 02:33:39;;;;;;;65.70;37.47;;;2.60;99.90;;;;;;5041840;28;20550;-76
2021/03/01 02:36:12;;;;;;;63.27;37.30;;;2.60;99.90;;;;;;5046328;28;20541;-74
2021/03/01 02:38:41;;;;;;;61.03;35.60;;;2.60;99.90;;;;;;5042233;28;20463;-74
2021/03/01 02:41:08;;;;;;;66.70;34.80;;;2.60;99.90;;;;;;5036512;28;20490;-75
2021/03/01 02:43:36;;;;;;;55.37;37.53;;;2.50;99.90;;;;;;5037689;28;20849;-74
2021/03/01 02:46:04;;;;;;;57.13;36.03;;;2.50;99.90;;;;;;5042830;28;20883;-73
2021/03/01 02:48:32;;;;;;;61.27;36.40;;;2.50;99.90;;;;;;5034213;28;20451;-75
2021/03/01 02:50:59;;;;;;;62.33;36.63;;;2.50;99.90;;;;;;5040406;28;20522;-72
2021/03/01 02:53:28;;;;;;;55.13;37.10;;;2.50;99.90;;;;;;5040794;28;20503;-72
2021/03/01 02:55:58;;;;;;;63.30;35.20;;;2.50;99.90;;;;;;5043035;28;20498;-73
2021/03/01 02:58:27;;;;;;;62.17;37.20;;;2.40;99.90;;;;;;5038879;28;20498;-72
2021/03/01 03:00:54;;;;;;;59.80;37.10;;;2.40;99.90;;;;;;5040426;28;20463;-73
2021/03/01 03:03:23;;;;;;;71.03;38.70;;;2.40;99.90;;;;;;5037653;28;20462;-72
2021/03/01 03:05:50;;;;;;;61.93;37.00;;;2.40;99.90;;;;;;5033810;28;20986;-72
2021/03/01 03:08:18;;;;;;;66.80;37.70;;;2.50;99.90;;;;;;5042799;28;20464;-72
2021/03/01 03:10:46;;;;;;;70.17;37.03;;;2.60;99.90;;;;;;5040869;28;20520;-73
2021/03/01 03:13:15;;;;;;;80.73;36.53;;;2.60;99.90;;;;;;5039216;28;20467;-72
2021/03/01 03:15:42;;;;;;;65.50;36.63;;;2.60;99.90;;;;;;5044932;28;20475;-72
2021/03/01 03:18:11;;;;;;;69.70;32.93;;;2.60;99.90;;;;;;5038611;28;20469;-73
2021/03/01 03:20:38;;;;;;;62.57;35.73;;;2.60;99.90;;;;;;5041797;28;20469;-70
2021/03/01 03:23:04;;;;;;;78.03;37.80;;;2.60;99.90;;;;;;5038980;28;20497;-70
2021/03/01 03:25:31;;;;;;;67.33;36.70;;;2.60;99.90;;;;;;5038809;28;20464;-71
2021/03/01 03:27:58;;;;;;;61.93;36.70;;;2.70;99.90;;;;;;5038539;28;20468;-74
2021/03/01 03:30:25;;;;;;;66.20;36.10;;;2.70;99.90;;;;;;5039413;28;20476;-73
2021/03/01 03:32:52;;;;;;;68.53;36.37;;;2.80;99.90;;;;;;5034436;28;20467;-72
2021/03/01 03:35:19;;;;;;;71.20;38.50;;;2.80;99.90;;;;;;5041892;28;20488;-73
2021/03/01 03:37:50;;;;;;;55.60;36.20;;;2.80;99.90;;;;;;5041112;28;20462;-74
2021/03/01 03:40:18;;;;;;;69.50;37.80;;;2.80;99.90;;;;;;5036509;28;20451;-74
2021/03/01 03:42:45;;;;;;;61.87;34.03;;;2.80;99.90;;;;;;5037460;28;20503;-73
2021/03/01 03:45:15;;;;;;;65.37;37.00;;;2.80;99.90;;;;;;5041030;28;20469;-74
2021/03/01 03:47:44;;;;;;;67.30;37.80;;;2.80;99.90;;;;;;5036658;28;20494;-72
2021/03/01 03:50:12;;;;;;;68.60;37.30;;;2.80;99.90;;;;;;5044325;28;20467;-71
2021/03/01 03:52:41;;;;;;;65.93;36.67;;;2.90;99.90;;;;;;5044982;28;20497;-72
2021/03/01 03:55:12;;;;;;;58.83;36.03;;;3.00;99.90;;;;;;5041555;28;20460;-72
2021/03/01 03:57:44;;;;;;;65.77;37.47;;;3.00;99.90;;;;;;5041257;28;20452;-75
2021/03/01 04:00:12;;;;;;;57.70;34.40;;;3.00;99.90;;;;;;5043307;28;20452;-73
2021/03/01 04:02:41;;;;;;;61.70;35.30;;;3.00;99.90;;;;;;5040799;28;20515;-75
2021/03/01 04:05:12;;;;;;;58.97;33.17;;;3.00;99.90;;;;;;5044753;28;20471;-72
2021/03/01 04:07:44;;;;;;;62.13;35.13;;;2.80;99.90;;;;;;5045406;28;20501;-72
2021/03/01 04:10:12;;;;;;;65.57;36.27;;;2.80;99.90;;;;;;5044163;28;20666;-74
2021/03/01 04:12:40;;;;;;;64.20;36.00;;;2.80;99.90;;;;;;5043089;28;20840;-73
2021/03/01 04:15:11;;;;;;;71.80;38.13;;;2.80;99.90;;;;;;5043936;28;20460;-73
2021/03/01 04:17:40;;;;;;;52.57;30.70;;;2.90;99.90;;;;;;5045045;28;20982;-71
2021/03/01 04:20:10;;;;;;;72.57;33.50;;;2.90;99.90;;;;;;5040845;28;20478;-74
2021/03/01 04:22:38;;;;;;;65.03;36.83;;;2.90;99.90;;;;;;5042319;28;20464;-77
2021/03/01 04:25:08;;;;;;;67.57;37.00;;;3.00;99.90;;;;;;5044163;28;20465;-74
2021/03/01 04:27:37;;;;;;;62.93;35.17;;;3.00;99.90;;;;;;5044360;28;20451;-73
2021/03/01 04:30:07;;;;;;;68.93;38.30;;;3.10;99.90;;;;;;5041117;28;21108;-72
2021/03/01 04:32:36;;;;;;;76.13;36.17;;;3.00;99.90;;;;;;5040785;28;20549;-75
2021/03/01 04:35:05;;;;;;;70.50;36.07;;;2.90;99.90;;;;;;5037171;28;20475;-73
2021/03/01 04:37:34;;;;;;;65.73;34.83;;;2.90;99.90;;;;;;5042186;28;20469;-73
2021/03/01 04:40:00;;;;;;;64.70;36.20;;;3.00;99.90;;;;;;5039530;28;20839;-76
2021/03/01 04:42:28;;;;;;;63.57;36.33;;;3.00;99.90;;;;;;5042789;28;20463;-75
2021/03/01 04:44:56;;;;;;;64.37;36.50;;;3.10;99.90;;;;;;5041429;28;21010;-71
2021/03/01 04:47:24;;;;;;;67.20;35.73;;;3.20;99.90;;;;;;5046166;28;20463;-71
2021/03/01 04:49:51;;;;;;;66.37;35.80;;;3.20;99.90;;;;;;5039115;28;20467;-73
2021/03/01 04:52:18;;;;;;;78.93;36.30;;;3.20;99.90;;;;;;5043943;28;20494;-71
2021/03/01 04:54:46;;;;;;;72.23;32.93;;;3.20;99.90;;;;;;5037398;28;20830;-73
2021/03/01 04:57:15;;;;;;;65.20;36.33;;;3.20;99.90;;;;;;5046126;28;20491;-73
2021/03/01 04:59:42;;;;;;;59.63;33.73;;;3.10;99.90;;;;;;5044686;28;20614;-70
2021/03/01 05:02:09;;;;;;;75.90;35.37;;;3.00;99.90;;;;;;5040963;28;20825;-72
2021/03/01 05:04:37;;;;;;;90.77;33.53;;;3.10;99.90;;;;;;5039005;28;20464;-73
2021/03/01 05:07:06;;;;;;;64.47;34.17;;;3.30;99.90;;;;;;5040321;28;20469;-72
2021/03/01 05:09:35;;;;;;;65.30;35.47;;;3.30;99.90;;;;;;5045807;28;20483;-74
2021/03/01 05:12:03;;;;;;;131.40;34.03;;;3.30;99.90;;;;;;5041979;28;20525;-72
2021/03/01 05:14:29;;;;;;;76.47;37.33;;;3.30;99.90;;;;;;5039863;28;20487;-73
2021/03/01 05:16:56;;;;;;;95.60;37.83;;;3.40;99.90;;;;;;5042784;28;20484;-73
2021/03/01 05:19:23;;;;;;;92.73;37.37;;;3.40;99.90;;;;;;5037304;28;20960;-71
2021/03/01 05:21:49;;;;;;;87.53;38.60;;;3.30;99.90;;;;;;5045025;28;20597;-76
2021/03/01 05:24:15;;;;;;;126.70;37.93;;;3.30;99.90;;;;;;5046958;28;20853;-71
2021/03/01 05:26:43;;;;;;;112.87;36.67;;;3.30;99.90;;;;;;5037164;28;20502;-73
2021/03/01 05:29:10;;;;;;;63.33;36.80;;;3.20;99.90;;;;;;5032525;28;20472;-74
2021/03/01 05:31:36;;;;;;;94.17;34.50;;;3.30;99.90;;;;;;5042305;28;20821;-73
2021/03/01 05:34:03;;;;;;;68.97;33.47;;;3.30;99.90;;;;;;5040306;28;20471;-74
2021/03/01 05:36:29;;;;;;;105.17;36.90;;;3.30;99.90;;;;;;5038526;28;20500;-75
2021/03/01 05:38:55;;;;;;;64.90;35.77;;;3.40;99.90;;;;;;5040134;28;20465;-74
2021/03/01 05:41:26;;;;;;;67.20;35.57;;;3.30;99.90;;;;;;5037350;28;20944;-72
2021/03/01 05:43:52;;;;;;;87.43;35.30;;;3.30;99.90;;;;;;5041494;28;20467;-74
2021/03/01 05:46:22;;;;;;;64.27;35.50;;;3.40;99.90;;;;;;5043942;28;20821;-74
2021/03/01 05:48:49;;;;;;;80.00;35.77;;;3.30;99.90;;;;;;5040308;28;20475;-74
2021/03/01 05:51:17;;;;;;;79.13;35.70;;;3.40;99.90;;;;;;5043814;28;20491;-73
2021/03/01 05:53:46;;;;;;;60.03;34.50;;;3.40;99.90;;;;;;5039814;28;20966;-72
2021/03/01 05:56:14;;;;;;;122.50;36.47;;;3.20;99.90;;;;;;5043333;28;20483;-76
2021/03/01 05:58:42;;;;;;;77.27;31.60;;;3.20;99.90;;;;;;5040358;28;20470;-75
2021/03/01 06:01:08;;;;;;;94.57;34.10;;;3.30;99.90;;;;;;5040208;28;20474;-74
2021/03/01 06:03:36;;;;;;;142.57;35.93;;;3.00;99.90;;;;;;5040087;28;20521;-75
2021/03/01 06:06:04;;;;;;;117.03;33.30;;;3.00;99.90;;;;;;5041354;28;20467;-74
2021/03/01 06:08:31;;;;;;;73.80;33.87;;;3.10;99.90;;;;;;5041054;28;20823;-75
2021/03/01 06:10:58;;;;;;;61.13;32.70;;;2.90;99.90;;;;;;5038966;28;20452;-73
2021/03/01 06:13:25;;;;;;;87.67;31.27;;;2.90;99.90;;;;;;5040341;28;20472;-73
2021/03/01 06:15:53;;;;;;;109.60;36.40;;;2.90;99.90;;;;;;5042646;28;20492;-75
2021/03/01 06:18:20;;;;;;;66.50;34.80;;;2.90;99.90;;;;;;5043047;28;20488;-73
2021/03/01 06:20:47;;;;;;;174.80;35.30;;;3.00;99.90;;;;;;5043330;28;20467;-73
2021/03/01 06:23:29;;;;;;;99.47;38.57;;;2.90;99.90;;;;;;5041557;28;20463;-72
2021/03/01 06:25:56;;;;;;;66.27;34.60;;;2.90;99.90;;;;;;5038247;28;20969;-73
2021/03/01 06:28:28;;;;;;;74.60;36.17;;;3.00;99.90;;;;;;5037539;28;20478;-74
2021/03/01 06:30:54;;;;;;;113.53;35.07;;;3.00;99.90;;;;;;5039794;28;20471;-76
2021/03/01 06:33:21;;;;;;;62.30;32.23;;;3.10;99.90;;;;;;5042187;28;20466;-75
2021/03/01 06:35:49;;;;;;;98.90;35.87;;;3.00;99.90;;;;;;5041626;28;20477;-74
2021/03/01 06:38:23;;;;;;;75.50;30.07;;;3.10;99.90;;;;;;5041527;28;20465;-73
2021/03/01 06:41:18;;;;;;;86.10;34.60;;;3.00;99.90;;;;;;5042307;28;20520;-76
2021/03/01 06:43:57;;;;;;;67.67;31.10;;;3.10;99.90;;;;;;5040103;28;20463;-76
2021/03/01 06:46:25;;;;;;;112.57;36.40;;;3.10;99.90;;;;;;5037129;28;20463;-73
2021/03/01 06:48:51;;;;;;;100.67;34.83;;;3.10;99.90;;;;;;5033981;28;20921;-77
2021/03/01 06:51:19;;;;;;;104.77;35.43;;;3.00;99.90;;;;;;5040190;28;20549;-75
2021/03/01 06:53:57;;;;;;;93.50;34.00;;;3.00;99.90;;;;;;5035477;28;20878;-75
2021/03/01 06:56:36;;;;;;;94.30;36.50;;;3.00;99.90;;;;;;5038378;28;20553;-74
2021/03/01 06:59:10;;;;;;;71.47;34.03;;;2.90;99.90;;;;;;5039966;28;20947;-74
2021/03/01 07:01:44;;;;;;;89.13;36.80;;;3.10;99.90;;;;;;5030723;28;20479;-77
2021/03/01 07:04:19;;;;;;;93.43;36.20;;;3.30;99.90;;;;;;5033330;28;20836;-74
2021/03/01 07:06:47;;;;;;;96.80;34.40;;;3.40;99.90;;;;;;5037729;28;20513;-71
2021/03/01 07:09:16;;;;;;;162.90;36.37;;;3.30;99.90;;;;;;5038003;28;20490;-75
2021/03/01 07:11:45;;;;;;;88.47;35.60;;;3.30;99.90;;;;;;5037545;28;20546;-72
2021/03/01 07:14:13;;;;;;;72.13;37.23;;;3.40;99.90;;;;;;5037342;28;20460;-73
2021/03/01 07:16:41;;;;;;;95.47;36.40;;;3.60;99.90;;;;;;5036451;28;20542;-75
2021/03/01 07:19:10;;;;;;;59.03;27.93;;;3.50;99.90;;;;;;5036964;28;21025;-77
2021/03/01 07:21:39;;;;;;;72.10;34.63;;;3.50;99.90;;;;;;5041925;28;20555;-75
2021/03/01 07:24:07;;;;;;;106.13;36.80;;;3.60;99.90;;;;;;5041612;28;20930;-75
2021/03/01 07:26:34;;;;;;;89.57;36.47;;;3.70;99.90;;;;;;5040071;28;20456;-72
2021/03/01 07:29:08;;;;;;;117.73;36.30;;;3.70;99.90;;;;;;5043128;28;20469;-75
2021/03/01 07:31:37;;;;;;;72.13;35.23;;;3.60;99.90;;;;;;5037691;28;20461;-72
2021/03/01 07:34:05;;;;;;;78.57;36.40;;;3.60;99.90;;;;;;5040502;28;20468;-71
2021/03/01 07:36:32;;;;;;;78.90;38.47;;;3.70;99.90;;;;;;5033129;28;20492;-74
2021/03/01 07:39:00;;;;;;;83.37;34.40;;;3.60;99.90;;;;;;5044747;28;20541;-77
2021/03/01 07:41:27;;;;;;;78.10;38.47;;;3.60;99.90;;;;;;5040876;28;20598;-74
2021/03/01 07:43:55;;;;;;;85.47;37.00;;;3.70;99.90;;;;;;5042090;28;20495;-73
2021/03/01 07:46:27;;;;;;;73.77;34.33;;;3.80;99.90;;;;;;5040801;28;20816;-75
2021/03/01 07:48:54;;;;;;;83.20;40.10;;;3.60;99.90;;;;;;5037005;28;20464;-76
2021/03/01 07:51:40;;;;;;;121.93;36.33;;;3.50;99.90;;;;;;5050799;28;20483;-75
2021/03/01 07:54:07;;;;;;;61.33;30.23;;;3.40;99.90;;;;;;5039925;28;20459;-73
2021/03/01 07:56:51;;;;;;;76.80;33.97;;;3.20;99.90;;;;;;5042438;28;21013;-76
2021/03/01 07:59:31;;;;;;;61.23;28.63;;;3.30;99.90;;;;;;5038817;28;20491;-76
2021/03/01 08:02:29;;;;;;;95.23;35.77;;;3.30;99.90;;;;;;5042672;28;20456;-75
2021/03/01 08:04:56;;;;;;;68.10;33.17;;;3.40;99.90;;;;;;5038877;28;20826;-75
2021/03/01 08:07:39;;;;;;;71.83;34.77;;;3.30;99.90;;;;;;5041120;28;20817;-78
2021/03/01 08:10:08;;;;;;;61.93;31.73;;;3.60;99.90;;;;;;5045038;28;20472;-73
2021/03/01 08:13:01;;;;;;;70.27;34.43;;;3.80;99.90;;;;;;5035293;28;20517;-72
2021/03/01 08:15:39;;;;;;;78.90;34.63;;;3.90;99.90;;;;;;5046636;28;20540;-76
2021/03/01 08:18:07;;;;;;;64.87;34.33;;;4.10;99.90;;;;;;5039334;28;20852;-75
2021/03/01 08:20:42;;;;;;;60.37;33.53;;;4.30;99.90;;;;;;5036322;28;20461;-77
2021/03/01 08:23:16;;;;;;;65.77;33.30;;;4.60;99.90;;;;;;5040794;28;21007;-75
2021/03/01 08:25:58;;;;;;;64.90;34.77;;;4.60;99.90;;;;;;5036096;28;20464;-72
2021/03/01 08:28:54;;;;;;;63.43;35.00;;;4.50;99.90;;;;;;5038306;28;20870;-75
2021/03/01 08:31:32;;;;;;;64.20;33.67;;;4.50;99.90;;;;;;5045264;28;21172;-74
2021/03/01 08:34:24;;;;;;;57.37;33.90;;;4.60;99.90;;;;;;5040821;28;21232;-75
2021/03/01 08:36:51;;;;;;;64.03;33.33;;;4.60;99.90;;;;;;5039357;28;20580;-73
2021/03/01 08:39:54;;;;;;;60.60;35.43;;;4.90;99.90;;;;;;5038301;28;21051;-74
2021/03/01 08:42:53;;;;;;;63.27;36.03;;;5.10;99.90;;;;;;5034768;28;20859;-73
2021/03/01 08:45:41;;;;;;;61.33;35.40;;;5.20;99.90;;;;;;5043228;28;20475;-75
2021/03/01 08:48:15;;;;;;;54.13;32.30;;;5.40;99.90;;;;;;5031902;28;20959;-74
2021/03/01 08:50:42;;;;;;;55.67;34.00;;;5.60;99.90;;;;;;5039473;28;20471;-76
2021/03/01 08:53:10;;;;;;;62.37;37.60;;;5.50;99.90;;;;;;5040196;28;20468;-72
2021/03/01 08:55:39;;;;;;;60.23;36.93;;;5.60;99.90;;;;;;5037129;28;20846;-76
2021/03/01 08:58:08;;;;;;;57.30;35.00;;;5.90;99.90;;;;;;5034895;28;20461;-76
2021/03/01 09:00:36;;;;;;;54.83;36.97;;;6.00;99.90;;;;;;5041401;28;20477;-73
2021/03/01 09:03:22;;;;;;;52.63;34.27;;;6.10;99.90;;;;;;5039356;28;20474;-73
2021/03/01 09:05:50;;;;;;;49.07;36.67;;;6.20;99.90;;;;;;5030071;28;20478;-72
2021/03/01 09:08:27;;;;;;;50.93;36.40;;;6.50;99.90;;;;;;5039081;28;20468;-75
2021/03/01 09:10:55;;;;;;;51.67;35.90;;;6.90;99.90;;;;;;5040501;28;20873;-74
2021/03/01 09:13:22;;;;;;;42.70;30.57;;;7.40;99.90;;;;;;5038017;28;20464;-77
2021/03/01 09:15:49;;;;;;;47.97;36.40;;;6.90;99.90;;;;;;5040825;28;20842;-74
2021/03/01 09:18:16;;;;;;;43.23;35.60;;;6.90;99.90;;;;;;5038013;28;20471;-74
2021/03/01 09:20:53;;;;;;;50.73;38.93;;;6.70;99.90;;;;;;5036389;28;20469;-74
2021/03/01 09:23:43;;;;;;;55.17;38.50;;;6.50;99.90;;;;;;5033265;28;20550;-74
2021/03/01 09:26:22;;;;;;;52.07;38.37;;;6.30;99.90;;;;;;5040889;28;20489;-75
2021/03/01 09:28:49;;;;;;;44.87;34.67;;;6.20;99.90;;;;;;5034652;28;20574;-76
2021/03/01 09:31:16;;;;;;;42.60;32.50;;;6.20;99.90;;;;;;5042217;28;20490;-77
2021/03/01 09:33:43;;;;;;;50.53;36.60;;;6.00;99.90;;;;;;5034675;28;20467;-74
2021/03/01 09:36:11;;;;;;;47.97;34.23;;;5.90;99.90;;;;;;5034473;28;20893;-75
2021/03/01 09:38:40;;;;;;;43.77;33.20;;;6.00;99.90;;;;;;5031640;28;20648;-75
2021/03/01 09:41:07;;;;;;;48.97;33.03;;;5.90;99.90;;;;;;5028372;28;20464;-78
2021/03/01 09:43:36;;;;;;;45.80;35.70;;;6.00;99.90;;;;;;5023600;28;20455;-74
2021/03/01 09:46:04;;;;;;;36.27;31.07;;;6.00;99.90;;;;;;5023945;28;20518;-74
2021/03/01 09:48:35;;;;;;;38.70;30.40;;;6.20;99.90;;;;;;5023338;28;20478;-73
2021/03/01 09:51:03;;;;;;;36.83;30.20;;;6.40;99.90;;;;;;5023994;28;20844;-75
2021/03/01 09:53:29;;;;;;;38.60;30.17;;;6.50;99.90;;;;;;5028097;28;20508;-74
2021/03/01 09:55:56;;;;;;;38.50;31.70;;;6.60;99.90;;;;;;5032785;28;20515;-76
2021/03/01 09:58:27;;;;;;;37.93;31.50;;;6.60;99.90;;;;;;5027369;28;20470;-73
2021/03/01 10:01:05;;;;;;;36.27;29.43;;;6.70;99.90;;;;;;5029926;28;20471;-73
2021/03/01 10:03:35;;;;;;;38.50;31.33;;;6.70;99.90;;;;;;5030647;28;20804;-74
2021/03/01 10:06:01;;;;;;;35.73;30.90;;;6.90;99.90;;;;;;5034763;28;20471;-77
2021/03/01 10:08:27;;;;;;;37.17;30.97;;;6.80;99.90;;;;;;5033541;28;20476;-77
2021/03/01 10:10:54;;;;;;;36.20;29.77;;;6.70;99.90;;;;;;5027996;28;20459;-73
2021/03/01 10:13:26;;;;;;;41.23;32.40;;;7.00;99.90;;;;;;5023869;28;20464;-75
2021/03/01 10:15:54;;;;;;;34.77;30.33;;;7.00;99.90;;;;;;5025925;28;20454;-73
2021/03/01 10:18:22;;;;;;;31.90;27.70;;;7.50;99.90;;;;;;5033648;28;20471;-74
2021/03/01 10:20:51;;;;;;;28.93;25.87;;;8.00;99.90;;;;;;5027490;28;20460;-74
2021/03/01 10:23:30;;;;;;;32.90;28.27;;;8.70;99.90;;;;;;5023926;28;21116;-74
2021/03/01 10:26:14;;;;;;;36.23;28.50;;;9.80;99.90;;;;;;5030872;28;20461;-74
2021/03/01 10:28:42;;;;;;;29.70;26.47;;;10.10;99.90;;;;;;5030196;28;20494;-75
2021/03/01 10:31:11;;;;;;;32.57;29.03;;;10.10;99.90;;;;;;5033336;28;20462;-71
2021/03/01 10:33:59;;;;;;;32.27;28.90;;;10.30;99.90;;;;;;5027764;28;20471;-75
2021/03/01 10:36:28;;;;;;;30.53;26.80;;;10.90;99.90;;;;;;5027991;28;20487;-74
2021/03/01 10:39:00;;;;;;;34.87;28.00;;;11.20;99.90;;;;;;5030511;28;20555;-74
2021/03/01 10:41:28;;;;;;;27.53;24.63;;;11.40;99.90;;;;;;5033072;28;21126;-75
2021/03/01 10:43:57;;;;;;;30.40;27.30;;;11.90;99.90;;;;;;5028068;28;20511;-74
2021/03/01 10:46:36;;;;;;;32.53;27.07;;;12.70;99.90;;;;;;5030964;28;20468;-73
2021/03/01 10:49:04;;;;;;;30.43;27.13;;;13.40;99.90;;;;;;5029646;28;20465;-76
2021/03/01 10:51:31;;;;;;;30.97;27.90;;;12.90;99.90;;;;;;5033617;28;20480;-75
2021/03/01 10:53:57;;;;;;;30.57;27.37;;;13.30;99.90;;;;;;5031690;28;20939;-74
2021/03/01 10:56:24;;;;;;;30.67;27.20;;;13.00;99.90;;;;;;5027981;28;20484;-74
2021/03/01 10:58:50;;;;;;;31.27;28.17;;;12.70;99.90;;;;;;5027356;28;20834;-74
2021/03/01 11:01:17;;;;;;;29.20;26.20;;;12.90;99.90;;;;;;5032927;28;20464;-73
2021/03/01 11:03:45;;;;;;;30.17;26.90;;;12.90;99.90;;;;;;5031849;28;20486;-74
2021/03/01 11:06:13;;;;;;;30.17;27.00;;;13.60;99.90;;;;;;5039588;28;20499;-74
2021/03/01 11:08:40;;;;;;;29.77;26.90;;;13.60;99.90;;;;;;5038395;28;20503;-75
2021/03/01 11:11:06;;;;;;;30.50;27.30;;;13.70;99.90;;;;;;5038339;28;20463;-74
2021/03/01 11:13:33;;;;;;;26.50;24.07;;;13.50;99.90;;;;;;5033603;28;20955;-74
2021/03/01 11:15:59;;;;;;;29.40;26.40;;;13.40;99.90;;;;;;5038510;28;20464;-73
2021/03/01 11:18:25;;;;;;;29.67;26.80;;;13.40;99.90;;;;;;5037052;28;20470;-73
2021/03/01 11:20:52;;;;;;;29.57;26.70;;;14.00;99.90;;;;;;5039551;28;20459;-77
2021/03/01 11:23:19;;;;;;;28.23;25.40;;;14.00;99.90;;;;;;5038758;28;20467;-74
2021/03/01 11:25:47;;;;;;;27.97;24.97;;;13.40;99.90;;;;;;5036776;28;20484;-74
2021/03/01 11:28:13;;;;;;;29.30;26.50;;;13.30;99.90;;;;;;5035313;28;20459;-74
2021/03/01 11:30:39;;;;;;;29.63;26.43;;;12.70;99.90;;;;;;5043437;28;20921;-73
2021/03/01 11:33:07;;;;;;;27.77;25.20;;;13.10;99.90;;;;;;5040135;28;20466;-75
2021/03/01 11:35:34;;;;;;;28.73;25.70;;;13.00;99.90;;;;;;5035940;28;20812;-74
2021/03/01 11:38:02;;;;;;;28.93;26.20;;;13.70;99.90;;;;;;5036549;28;21006;-74
2021/03/01 11:40:29;;;;;;;28.17;25.50;;;13.70;99.90;;;;;;5041748;28;20463;-74
2021/03/01 11:42:56;;;;;;;26.83;24.23;;;14.00;99.90;;;;;;5034030;28;20499;-74
2021/03/01 11:45:23;;;;;;;27.27;24.63;;;14.60;99.90;;;;;;5037967;28;20897;-76
2021/03/01 11:47:49;;;;;;;28.53;25.80;;;14.80;99.90;;;;;;5035186;28;20466;-74
2021/03/01 11:50:17;;;;;;;27.23;24.80;;;15.20;99.90;;;;;;5041108;28;20490;-74
2021/03/01 11:52:43;;;;;;;30.47;27.20;;;14.90;99.90;;;;;;5030361;28;20505;-75
2021/03/01 11:55:12;;;;;;;26.70;24.40;;;15.20;99.90;;;;;;5039622;28;20845;-73
2021/03/01 11:57:38;;;;;;;28.30;25.70;;;14.80;99.90;;;;;;5041796;28;20494;-74
2021/03/01 12:00:06;;;;;;;28.17;25.67;;;15.10;99.90;;;;;;5035355;28;20474;-76
2021/03/01 12:02:32;;;;;;;28.97;26.10;;;15.30;99.90;;;;;;5033176;28;20487;-74
2021/03/01 12:05:00;;;;;;;31.20;28.03;;;14.90;99.90;;;;;;5031919;28;20816;-76
2021/03/01 12:07:26;;;;;;;27.87;25.27;;;15.10;99.90;;;;;;5033073;28;20958;-76
2021/03/01 12:09:52;;;;;;;26.53;23.90;;;14.80;99.90;;;;;;5035422;28;20479;-76
2021/03/01 12:12:20;;;;;;;29.93;27.13;;;14.90;99.90;;;;;;5034325;28;20464;-74
2021/03/01 12:14:46;;;;;;;29.17;26.23;;;14.50;99.90;;;;;;5033823;28;20524;-74
2021/03/01 12:17:12;;;;;;;27.43;24.60;;;14.90;99.90;;;;;;5034873;28;20484;-77
2021/03/01 12:19:39;;;;;;;27.80;25.07;;;15.20;99.90;;;;;;5030960;28;20840;-74
2021/03/01 12:22:05;;;;;;;27.73;25.23;;;15.30;99.90;;;;;;5031819;28;20496;-74
2021/03/01 12:24:32;;;;;;;27.80;25.13;;;15.50;99.90;;;;;;5035506;28;20455;-77
2021/03/01 12:26:58;;;;;;;25.80;23.23;;;15.40;99.90;;;;;;5032908;28;20529;-74
2021/03/01 12:29:25;;;;;;;27.80;25.10;;;15.80;99.90;;;;;;5028480;28;20518;-74
2021/03/01 12:31:52;;;;;;;28.40;25.80;;;15.80;99.90;;;;;;5031523;28;20487;-77
2021/03/01 12:34:18;;;;;;;28.80;26.30;;;15.90;99.90;;;;;;5028681;28;20479;-74
2021/03/01 12:36:59;;;;;;;27.30;24.33;;;15.80;99.90;;;;;;5039033;28;21068;-75
2021/03/01 12:39:25;;;;;;;28.43;25.87;;;15.80;99.90;;;;;;5027811;28;20463;-74
2021/03/01 12:41:51;;;;;;;27.60;25.27;;;15.30;99.90;;;;;;5029767;28;20469;-77
2021/03/01 12:44:17;;;;;;;27.53;25.13;;;15.50;99.90;;;;;;5027258;28;20465;-73
2021/03/01 12:46:45;;;;;;;29.73;26.57;;;16.20;99.90;;;;;;5031202;28;20929;-73